createdAt,value
2023-02-06T00:00:10.941Z,-2.34
2023-02-06T00:03:14.167Z,-2.47
2023-02-06T00:06:17.061Z,-2.47
2023-02-06T00:09:19.690Z,-2.59
2023-02-06T00:12:22.261Z,-2.66
2023-02-06T00:15:25.583Z,-2.59
2023-02-06T00:18:29.240Z,-2.67
2023-02-06T00:21:32.136Z,-2.59
2023-02-06T00:24:34.794Z,-2.70
2023-02-06T00:27:38.570Z,-2.82
2023-02-06T00:30:41.408Z,-2.71
2023-02-06T00:33:44.095Z,-2.68
2023-02-06T00:36:46.702Z,-2.59
2023-02-06T00:39:50.565Z,-2.66
2023-02-06T00:42:53.861Z,-2.62
2023-02-06T00:45:57.830Z,-2.65
2023-02-06T00:49:03.102Z,-2.70
2023-02-06T00:52:06.565Z,-2.72
2023-02-06T00:55:09.137Z,-2.85
2023-02-06T00:58:13.215Z,-2.87
2023-02-06T01:01:19.656Z,-2.76
2023-02-06T01:04:22.653Z,-2.75
2023-02-06T01:07:25.256Z,-2.90
2023-02-06T01:10:29.119Z,-3.06
2023-02-06T01:13:32.596Z,-3.11
2023-02-06T01:16:35.190Z,-3.20
2023-02-06T01:19:39.260Z,-3.21
2023-02-06T01:22:41.965Z,-3.22
2023-02-06T01:25:45.653Z,-3.28
2023-02-06T01:28:50.187Z,-3.24
2023-02-06T01:31:52.919Z,-3.19
2023-02-06T01:34:56.068Z,-3.07
2023-02-06T01:37:58.736Z,-3.10
2023-02-06T01:41:02.016Z,-2.99
2023-02-06T01:44:22.542Z,-2.95
2023-02-06T01:47:25.128Z,-2.87
2023-02-06T01:50:30.749Z,-2.89
2023-02-06T01:53:35.958Z,-2.88
2023-02-06T01:56:44.966Z,-2.96
2023-02-06T01:59:52.623Z,-3.03
2023-02-06T02:02:55.482Z,-2.99
2023-02-06T02:06:01.519Z,-3.04
2023-02-06T02:09:07.621Z,-3.01
2023-02-06T02:12:11.508Z,-3.00
2023-02-06T02:15:14.276Z,-2.87
2023-02-06T02:18:25.845Z,-2.89
2023-02-06T02:22:05.979Z,-2.96
2023-02-06T02:25:32.919Z,-2.97
2023-02-06T02:29:06.865Z,-3.11
2023-02-06T02:32:19.323Z,-2.91
2023-02-06T02:35:31.230Z,-3.02
2023-02-06T02:39:13.724Z,-2.89
2023-02-06T02:42:27.080Z,-2.83
2023-02-06T02:45:48.243Z,-2.87
2023-02-06T02:48:54.205Z,-2.94
2023-02-06T02:51:59.402Z,-3.03
2023-02-06T02:55:15.059Z,-2.98
2023-02-06T02:58:26.690Z,-3.13
2023-02-06T03:01:52.182Z,-3.15
2023-02-06T03:04:59.699Z,-3.10
2023-02-06T03:08:22.022Z,-3.15
2023-02-06T03:11:25.771Z,-3.23
2023-02-06T03:14:43.977Z,-3.21
2023-02-06T03:18:03.977Z,-3.20
2023-02-06T03:21:11.054Z,-3.52
2023-02-06T03:24:17.457Z,-3.57
2023-02-06T03:27:23.007Z,-3.42
2023-02-06T03:30:30.026Z,-3.36
2023-02-06T03:33:39.933Z,-3.28
2023-02-06T03:36:42.732Z,-3.33
2023-02-06T03:39:45.609Z,-3.34
2023-02-06T03:42:53.612Z,-3.33
2023-02-06T03:46:03.451Z,-3.33
2023-02-06T03:49:10.436Z,-3.43
2023-02-06T03:52:19.611Z,-3.38
2023-02-06T03:55:24.383Z,-3.42
2023-02-06T03:58:27.834Z,-3.55
2023-02-06T04:01:30.548Z,-3.88
2023-02-06T04:04:39.279Z,-3.66
2023-02-06T04:07:43.009Z,-3.81
2023-02-06T04:10:46.243Z,-3.65
2023-02-06T04:13:48.827Z,-3.67
2023-02-06T04:16:52.273Z,-3.70
2023-02-06T04:19:55.875Z,-3.92
2023-02-06T04:23:00.076Z,-4.01
2023-02-06T04:26:03.632Z,-4.05
2023-02-06T04:29:06.543Z,-4.02
2023-02-06T04:32:09.990Z,-3.91
2023-02-06T04:35:12.562Z,-3.97
2023-02-06T04:38:15.182Z,-3.97
2023-02-06T04:41:18.392Z,-3.89
2023-02-06T04:44:21.819Z,-3.93
2023-02-06T04:47:25.364Z,-4.00
2023-02-06T04:50:31.454Z,-4.12
2023-02-06T04:53:34.988Z,-4.06
2023-02-06T04:56:38.483Z,-3.97
2023-02-06T04:59:41.051Z,-4.03
2023-02-06T05:02:43.689Z,-3.97
2023-02-06T05:05:46.376Z,-4.02
2023-02-06T05:08:48.867Z,-3.96
2023-02-06T05:11:51.561Z,-3.91
2023-02-06T05:14:55.498Z,-3.90
2023-02-06T05:17:58.804Z,-3.75
2023-02-06T05:21:04.397Z,-3.59
2023-02-06T05:24:07.130Z,-3.54
2023-02-06T05:27:09.769Z,-3.45
2023-02-06T05:30:14.220Z,-3.39
2023-02-06T05:33:18.979Z,-3.43
2023-02-06T05:36:22.861Z,-3.43
2023-02-06T05:39:25.625Z,-3.43
2023-02-06T05:42:28.403Z,-3.41
2023-02-06T05:45:31.052Z,-3.32
2023-02-06T05:48:35.030Z,-3.39
2023-02-06T05:51:37.796Z,-3.41
2023-02-06T05:54:40.503Z,-3.39
2023-02-06T05:57:44.759Z,-3.36
2023-02-06T06:00:48.470Z,-3.30
2023-02-06T06:03:52.265Z,-3.35
2023-02-06T06:06:54.970Z,-3.39
2023-02-06T06:09:58.567Z,-3.36
2023-02-06T06:13:01.259Z,-3.40
2023-02-06T06:16:04.416Z,-3.40
2023-02-06T06:19:07.276Z,-3.58
2023-02-06T06:22:11.538Z,-3.50
2023-02-06T06:25:17.432Z,-3.51
2023-02-06T06:28:21.088Z,-3.54
2023-02-06T06:31:24.644Z,-3.48
2023-02-06T06:34:28.051Z,-3.39
2023-02-06T06:37:31.454Z,-3.27
2023-02-06T06:40:35.067Z,-3.20
2023-02-06T06:43:37.901Z,-3.24
2023-02-06T06:46:42.393Z,-3.37
2023-02-06T06:49:49.440Z,-3.31
2023-02-06T06:52:52.137Z,-3.23
2023-02-06T06:55:55.004Z,-3.16
2023-02-06T06:58:59.575Z,-3.03
2023-02-06T07:02:02.907Z,-3.16
2023-02-06T07:05:07.528Z,-3.05
2023-02-06T07:08:10.867Z,-3.15
2023-02-06T07:11:15.278Z,-3.07
2023-02-06T07:14:18.469Z,-2.99
2023-02-06T07:17:21.314Z,-2.95
2023-02-06T07:20:24.447Z,-2.80
2023-02-06T07:23:28.588Z,-2.68
2023-02-06T07:26:31.613Z,-2.70
2023-02-06T07:29:35.911Z,-2.70
2023-02-06T07:32:38.913Z,-2.59
2023-02-06T07:35:42.105Z,-2.49
2023-02-06T07:38:45.564Z,-2.26
2023-02-06T07:41:50.452Z,-2.09
2023-02-06T07:44:55.999Z,-1.95
2023-02-06T07:47:59.318Z,-1.83
2023-02-06T07:51:08.809Z,-1.85
2023-02-06T07:55:09.640Z,-1.48
2023-02-06T07:58:19.839Z,-1.41
2023-02-06T08:01:23.795Z,-1.36
2023-02-06T08:04:29.543Z,-1.59
2023-02-06T08:07:32.500Z,-1.42
2023-02-06T08:10:38.962Z,-1.30
2023-02-06T08:13:43.037Z,-1.02
2023-02-06T08:16:46.382Z,-0.61
2023-02-06T08:19:51.532Z,-0.96
2023-02-06T08:22:54.766Z,-0.69
2023-02-06T08:26:13.691Z,-0.77
2023-02-06T08:29:16.744Z,-0.65
2023-02-06T08:32:25.751Z,-0.54
2023-02-06T08:35:41.528Z,-0.30
2023-02-06T08:39:01.053Z,-0.59
2023-02-06T08:42:11.266Z,-0.18
2023-02-06T08:45:55.665Z,-0.15
2023-02-06T08:50:15.698Z,0.23
2023-02-06T08:53:30.296Z,0.47
2023-02-06T08:56:35.213Z,0.57
2023-02-06T08:59:38.731Z,0.56
2023-02-06T09:02:44.818Z,0.38
2023-02-06T09:05:52.677Z,0.28
2023-02-06T09:09:00.343Z,0.54
2023-02-06T09:12:04.458Z,0.75
2023-02-06T09:15:08.231Z,0.55
2023-02-06T09:18:12.279Z,0.59
2023-02-06T09:21:22.508Z,0.66
2023-02-06T09:24:27.478Z,0.46
2023-02-06T09:27:30.633Z,0.65
2023-02-06T09:30:33.820Z,0.79
2023-02-06T09:33:38.606Z,1.02
2023-02-06T09:36:41.686Z,0.90
2023-02-06T09:39:47.652Z,0.93
2023-02-06T09:42:53.731Z,0.82
2023-02-06T09:46:02.387Z,0.68
2023-02-06T09:49:20.395Z,0.73
2023-02-06T09:52:59.132Z,0.97
2023-02-06T09:56:28.219Z,1.02
2023-02-06T09:59:49.663Z,0.88
2023-02-06T10:03:25.938Z,0.94
2023-02-06T10:06:41.192Z,0.44
2023-02-06T10:09:52.834Z,0.86
2023-02-06T10:13:20.838Z,1.08
2023-02-06T10:16:36.390Z,0.59
2023-02-06T10:19:54.390Z,0.81
2023-02-06T10:22:57.881Z,1.04
2023-02-06T10:26:23.532Z,1.07
2023-02-06T10:29:50.879Z,1.12
2023-02-06T10:33:25.673Z,0.84
2023-02-06T10:37:02.703Z,0.88
2023-02-06T10:41:08.987Z,1.20
2023-02-06T10:44:53.012Z,1.32
2023-02-06T10:48:22.739Z,1.40
2023-02-06T10:52:01.691Z,1.12
2023-02-06T10:55:49.957Z,1.21
2023-02-06T10:59:05.979Z,1.22
2023-02-06T11:02:26.935Z,1.54
2023-02-06T11:05:32.313Z,1.56
2023-02-06T11:08:41.095Z,1.68
2023-02-06T11:11:49.731Z,1.52
2023-02-06T11:14:55.872Z,1.75
2023-02-06T11:18:07.031Z,1.70
2023-02-06T11:21:13.112Z,1.74
2023-02-06T11:24:17.845Z,1.38
2023-02-06T11:27:21.061Z,1.80
2023-02-06T11:30:33.694Z,1.67
2023-02-06T11:33:45.712Z,1.87
2023-02-06T11:36:53.437Z,1.99
2023-02-06T11:40:17.691Z,1.95
2023-02-06T11:43:23.986Z,1.84
2023-02-06T11:46:37.425Z,1.91
2023-02-06T11:49:40.682Z,2.22
2023-02-06T11:52:47.178Z,1.96
2023-02-06T11:56:06.733Z,2.44
2023-02-06T11:59:24.381Z,2.59
2023-02-06T12:02:40.574Z,2.85
2023-02-06T12:06:26.014Z,3.02
2023-02-06T12:09:49.865Z,3.09
2023-02-06T12:13:46.776Z,3.05
2023-02-06T12:16:53.385Z,3.16
2023-02-06T12:20:26.985Z,2.80
2023-02-06T12:23:53.602Z,2.24
2023-02-06T12:27:00.092Z,3.01
2023-02-06T12:30:44.317Z,3.24
2023-02-06T12:33:56.241Z,3.25
2023-02-06T12:37:18.529Z,3.17
2023-02-06T12:40:41.466Z,3.35
2023-02-06T12:43:56.320Z,3.17
2023-02-06T12:47:02.241Z,3.07
2023-02-06T12:50:40.144Z,3.07
2023-02-06T12:54:37.501Z,3.27
2023-02-06T12:57:55.109Z,3.14
2023-02-06T13:01:35.838Z,2.89
2023-02-06T13:04:54.937Z,2.42
2023-02-06T13:08:11.037Z,2.31
2023-02-06T13:11:28.797Z,2.40
2023-02-06T13:14:37.511Z,2.23
2023-02-06T13:17:43.062Z,2.12
2023-02-06T13:21:25.332Z,2.10
2023-02-06T13:24:33.092Z,2.07
2023-02-06T13:27:49.077Z,2.05
2023-02-06T13:30:58.732Z,2.08
2023-02-06T13:34:06.010Z,2.25
2023-02-06T13:37:42.549Z,2.08
2023-02-06T13:40:45.446Z,1.92
2023-02-06T13:43:55.554Z,1.96
2023-02-06T13:47:22.380Z,1.99
2023-02-06T13:50:36.557Z,1.94
2023-02-06T13:53:52.530Z,1.91
2023-02-06T13:57:08.568Z,1.69
2023-02-06T14:00:20.270Z,1.74
2023-02-06T14:03:28.585Z,1.60
2023-02-06T14:06:48.157Z,1.62
2023-02-06T14:10:30.236Z,1.82
2023-02-06T14:14:24.148Z,1.67
2023-02-06T14:18:02.052Z,1.71
2023-02-06T14:21:29.519Z,1.63
2023-02-06T14:24:58.641Z,1.58
2023-02-06T14:28:33.948Z,1.60
2023-02-06T14:32:00.846Z,1.52
2023-02-06T14:35:26.387Z,1.50
2023-02-06T14:38:43.959Z,1.45
2023-02-06T14:41:47.616Z,1.50
2023-02-06T14:45:03.841Z,1.30
2023-02-06T14:48:29.102Z,1.41
2023-02-06T14:51:58.358Z,1.30
2023-02-06T14:55:31.279Z,1.23
2023-02-06T14:58:34.848Z,1.24
2023-02-06T15:01:37.979Z,1.26
2023-02-06T15:04:48.042Z,1.15
2023-02-06T15:08:01.846Z,1.10
2023-02-06T15:11:07.080Z,0.97
2023-02-06T15:14:27.185Z,0.88
2023-02-06T15:17:31.746Z,0.91
2023-02-06T15:20:41.490Z,0.92
2023-02-06T15:24:20.875Z,0.90
2023-02-06T15:27:28.318Z,0.92
2023-02-06T15:30:37.502Z,0.81
2023-02-06T15:33:41.447Z,0.70
2023-02-06T15:36:44.278Z,0.61
2023-02-06T15:39:47.556Z,0.68
2023-02-06T15:42:51.453Z,0.58
2023-02-06T15:45:57.084Z,0.66
2023-02-06T15:48:59.892Z,0.58
2023-02-06T15:52:04.869Z,0.57
2023-02-06T15:55:25.763Z,0.54
2023-02-06T15:58:35.212Z,0.41
2023-02-06T16:01:42.227Z,0.35
2023-02-06T16:04:45.816Z,0.41
2023-02-06T16:07:52.229Z,0.40
2023-02-06T16:11:26.442Z,0.39
2023-02-06T16:14:40.978Z,0.29
2023-02-06T16:17:43.756Z,0.28
2023-02-06T16:20:46.804Z,0.28
2023-02-06T16:24:03.338Z,0.30
2023-02-06T16:27:27.892Z,0.33
2023-02-06T16:30:35.095Z,0.23
2023-02-06T16:33:44.356Z,0.12
2023-02-06T16:36:48.651Z,0.11
2023-02-06T16:39:53.270Z,0.02
2023-02-06T16:42:56.001Z,0.02
2023-02-06T16:46:02.358Z,0.13
2023-02-06T16:49:13.963Z,0.07
2023-02-06T16:52:25.866Z,0.10
2023-02-06T16:55:29.282Z,0.21
2023-02-06T16:58:34.937Z,0.17
2023-02-06T17:01:37.867Z,0.19
2023-02-06T17:04:41.680Z,0.04
2023-02-06T17:07:45.428Z,0.02
2023-02-06T17:10:48.370Z,-0.01
2023-02-06T17:13:51.076Z,-0.04
2023-02-06T17:16:55.343Z,-0.01
2023-02-06T17:19:58.750Z,-0.16
2023-02-06T17:23:03.110Z,-0.22
2023-02-06T17:26:10.286Z,-0.15
2023-02-06T17:29:14.419Z,-0.16
2023-02-06T17:32:22.222Z,-0.12
2023-02-06T17:35:25.407Z,-0.17
2023-02-06T17:38:28.094Z,-0.17
2023-02-06T17:41:31.377Z,-0.17
2023-02-06T17:44:33.930Z,-0.18
2023-02-06T17:47:36.722Z,-0.25
2023-02-06T17:50:41.605Z,-0.27
2023-02-06T17:53:45.910Z,-0.47
2023-02-06T17:56:49.241Z,-0.51
2023-02-06T17:59:53.745Z,-0.62
2023-02-06T18:02:59.300Z,-0.53
2023-02-06T18:06:02.816Z,-0.53
2023-02-06T18:09:05.945Z,-0.49
2023-02-06T18:12:09.961Z,-0.57
2023-02-06T18:15:14.072Z,-0.63
2023-02-06T18:18:16.772Z,-0.52
2023-02-06T18:21:20.903Z,-0.55
2023-02-06T18:24:23.796Z,-0.76
2023-02-06T18:27:27.320Z,-0.74
2023-02-06T18:30:30.975Z,-0.76
2023-02-06T18:33:36.047Z,-0.75
2023-02-06T18:36:38.759Z,-0.87
2023-02-06T18:39:42.428Z,-0.91
2023-02-06T18:42:53.520Z,-0.91
2023-02-06T18:45:57.356Z,-0.89
2023-02-06T18:49:00.790Z,-0.91
2023-02-06T18:52:06.859Z,-0.96
2023-02-06T18:55:10.554Z,-1.05
2023-02-06T18:58:13.492Z,-1.13
2023-02-06T19:01:20.928Z,-1.20
2023-02-06T19:04:24.855Z,-1.12
2023-02-06T19:07:28.746Z,-1.01
2023-02-06T19:10:31.807Z,-1.04
2023-02-06T19:13:34.807Z,-1.09
2023-02-06T19:16:38.710Z,-1.18
2023-02-06T19:19:41.518Z,-1.16
2023-02-06T19:22:44.539Z,-1.27
2023-02-06T19:25:48.317Z,-1.22
2023-02-06T19:28:52.078Z,-1.25
2023-02-06T19:31:54.890Z,-1.27
2023-02-06T19:34:59.704Z,-1.32
2023-02-06T19:38:03.542Z,-1.30
2023-02-06T19:41:15.947Z,-1.29
2023-02-06T19:44:19.056Z,-1.32
2023-02-06T19:47:22.568Z,-1.51
2023-02-06T19:50:25.500Z,-1.47
2023-02-06T19:53:29.813Z,-1.56
2023-02-06T19:56:40.690Z,-1.57
2023-02-06T19:59:43.604Z,-1.47
2023-02-06T20:02:46.458Z,-1.20
2023-02-06T20:05:51.052Z,-1.33
2023-02-06T20:08:54.128Z,-1.18
2023-02-06T20:11:57.658Z,-1.25
2023-02-06T20:15:01.698Z,-1.32
2023-02-06T20:18:06.292Z,-1.40
2023-02-06T20:21:27.941Z,-1.49
2023-02-06T20:24:32.541Z,-1.47
2023-02-06T20:27:35.381Z,-1.40
2023-02-06T20:30:38.647Z,-1.47
2023-02-06T20:33:42.967Z,-1.54
2023-02-06T20:36:46.422Z,-1.49
2023-02-06T20:39:49.548Z,-1.52
2023-02-06T20:42:53.470Z,-1.57
2023-02-06T20:45:57.051Z,-1.65
2023-02-06T20:49:02.605Z,-1.49
2023-02-06T20:52:06.631Z,-1.71
2023-02-06T20:55:09.803Z,-1.76
2023-02-06T20:58:13.764Z,-1.71
2023-02-06T21:01:19.335Z,-1.77
2023-02-06T21:04:22.942Z,-1.78
2023-02-06T21:07:25.870Z,-1.83
2023-02-06T21:10:30.734Z,-1.72
2023-02-06T21:13:34.512Z,-1.74
2023-02-06T21:16:38.379Z,-1.77
2023-02-06T21:19:41.510Z,-1.89
2023-02-06T21:22:44.944Z,-1.97
2023-02-06T21:25:55.548Z,-2.01
2023-02-06T21:28:59.564Z,-1.90
2023-02-06T21:32:13.227Z,-1.80
2023-02-06T21:35:17.594Z,-1.78
2023-02-06T21:38:21.066Z,-1.86
2023-02-06T21:41:24.157Z,-1.88
2023-02-06T21:44:27.046Z,-1.97
2023-02-06T21:47:30.448Z,-2.01
2023-02-06T21:50:36.844Z,-2.01
2023-02-06T21:53:40.158Z,-2.17
2023-02-06T21:56:43.879Z,-2.44
2023-02-06T21:59:46.516Z,-2.38
2023-02-06T22:02:50.127Z,-2.26
2023-02-06T22:05:54.535Z,-2.30
2023-02-06T22:09:05.271Z,-2.35
2023-02-06T22:12:08.801Z,-2.41
2023-02-06T22:15:11.589Z,-2.42
2023-02-06T22:18:15.039Z,-2.52
2023-02-06T22:21:21.295Z,-2.57
2023-02-06T22:24:24.635Z,-2.57
2023-02-06T22:27:30.656Z,-2.59
2023-02-06T22:30:33.414Z,-2.70
2023-02-06T22:33:37.721Z,-2.74
2023-02-06T22:36:41.054Z,-2.78
2023-02-06T22:39:43.633Z,-3.00
2023-02-06T22:42:47.057Z,-3.15
2023-02-06T22:45:49.923Z,-3.46
2023-02-06T22:48:54.434Z,-3.22
2023-02-06T22:51:58.839Z,-3.06
2023-02-06T22:55:04.236Z,-3.05
2023-02-06T22:58:06.867Z,-3.14
2023-02-06T23:01:09.963Z,-3.11
2023-02-06T23:04:16.083Z,-3.14
2023-02-06T23:07:18.679Z,-3.23
2023-02-06T23:10:21.392Z,-3.22
2023-02-06T23:13:24.022Z,-3.15
2023-02-06T23:16:29.793Z,-3.64
2023-02-06T23:19:32.496Z,-3.53
2023-02-06T23:22:36.104Z,-3.36
2023-02-06T23:25:44.605Z,-3.36
2023-02-06T23:28:47.389Z,-3.72
2023-02-06T23:31:50.788Z,-3.94
2023-02-06T23:34:54.136Z,-3.93
2023-02-06T23:37:57.668Z,-3.91
2023-02-06T23:41:15.541Z,-3.61
2023-02-06T23:44:19.174Z,-3.58
2023-02-06T23:47:21.791Z,-3.51
2023-02-06T23:50:26.264Z,-3.68
2023-02-06T23:53:30.085Z,-3.47
2023-02-06T23:56:33.220Z,-3.39
2023-02-06T23:59:36.703Z,-3.44
